Utopia Ace — H8SX — position and weather

sailwx.info

Track history (hours):
 
Tides and Currents Weather Stations Pressure Air Temp Water Temp Dewpoint Dewpoint Depression Visibility Wind Speed Wind Dir Waves Ship Positions

Utopia Ace

Last reported at 2017-Dec-22 04:44 UTC. Time now 2018-Jan-24 09:48 UTC.
Position N 17°39' W 060°59'.
Warning: this ship's position is 33 days out of date.

Length 200 m; draft 8.9 m.

Type: Cargo ship. MMSI: 354487000.

Date/timePositionNaut miles runAvg speedWind from/ knotsBaromVisibWave heightAir tempDewpointWater temp
2017-Dec-22 04:44N 17°39' W 060°59'415.9
2017-Dec-22 04:30N 17°42' W 061°02'816.0
2017-Dec-22 04:00N 17°47' W 061°09'816.0
2017-Dec-22 03:30N 17°52' W 061°15'  
2017-Dec-17 16:37N 26°08' W 079°25'1021.4
2017-Dec-17 16:09N 25°59' W 079°28'921.5
2017-Dec-17 15:46N 25°51' W 079°30'721.5
2017-Dec-17 15:25N 25°43' W 079°31'921.7
2017-Dec-17 15:00N 25°34' W 079°32'  
Track history (hours):
 
Tides and Currents Weather Stations Pressure Air Temp Water Temp Dewpoint Dewpoint Depression Visibility Wind Speed Wind Dir Waves Ship Positions

Utopia Ace

Last reported at 2017-Dec-22 04:44 UTC. Time now 2018-Jan-24 09:48 UTC.
Position N 17°39' W 060°59'.
Warning: this ship's position is 33 days out of date.

Length 200 m; draft 8.9 m.

Type: Cargo ship. MMSI: 354487000.

Date/timePositionNaut miles runAvg speedWind from/ knotsBaromVisibWave heightAir tempDewpointWater temp
2017-Dec-22 04:44N 17°39' W 060°59'415.9
2017-Dec-22 04:30N 17°42' W 061°02'816.0
2017-Dec-22 04:00N 17°47' W 061°09'816.0
2017-Dec-22 03:30N 17°52' W 061°15'  
2017-Dec-17 16:37N 26°08' W 079°25'1021.4
2017-Dec-17 16:09N 25°59' W 079°28'921.5
2017-Dec-17 15:46N 25°51' W 079°30'721.5
2017-Dec-17 15:25N 25°43' W 079°31'921.7
2017-Dec-17 15:00N 25°34' W 079°32'  

Dump ship's entire track history